Time;durP1;ratioP1;P1;durP2;ratioP2;P2;SDS_P1;SDS_P2;PMS_P1;PMS_P2;Temp;Humidity;BMP_temperature;BMP_pressure;BME280_temperature;BME280_humidity;BME280_pressure;Samples;Min_cycle;Max_cycle;Signal;HPM_P1;HPM_P2
2023/05/04 00:00:06;;;;;;;15.10;11.77;;;;;;;9.73;81.40;94961.59;5058521;28;20040;-73
2023/05/04 00:02:31;;;;;;;15.95;12.82;;;;;;;9.63;79.35;94958.88;5055705;28;20434;-73
2023/05/04 00:04:57;;;;;;;13.50;12.10;;;;;;;9.69;79.86;94971.38;5059125;28;20245;-73
2023/05/04 00:07:22;;;;;;;17.15;12.32;;;;;;;9.48;79.96;94931.53;5092407;28;20047;-73
2023/05/04 00:09:49;;;;;;;16.20;14.30;;;;;;;9.57;81.42;94954.16;5093918;28;20029;-73
2023/05/04 00:12:14;;;;;;;16.48;13.57;;;;;;;9.57;81.76;94967.13;5075841;28;20040;-73
2023/05/04 00:14:40;;;;;;;15.23;13.05;;;;;;;9.68;80.89;94966.31;5058996;28;20062;-73
2023/05/04 00:17:06;;;;;;;14.93;13.02;;;;;;;9.55;80.94;94964.63;5092304;28;20052;-73
2023/05/04 00:19:33;;;;;;;17.30;14.23;;;;;;;9.50;82.46;94956.41;5092990;28;20020;-73
2023/05/04 00:21:59;;;;;;;15.30;13.00;;;;;;;9.56;82.75;94953.34;5058740;28;20081;-73
2023/05/04 00:24:25;;;;;;;14.55;12.85;;;;;;;9.62;82.34;94965.00;5075063;28;20039;-73
2023/05/04 00:26:50;;;;;;;14.55;12.63;;;;;;;9.73;81.58;94961.59;5058755;28;20131;-74
2023/05/04 00:29:16;;;;;;;17.08;13.38;;;;;;;9.82;81.75;94959.09;5057635;28;20020;-73
2023/05/04 00:31:41;;;;;;;18.35;13.38;;;;;;;9.75;81.55;94955.34;5093340;28;20487;-73
2023/05/04 00:34:07;;;;;;;14.25;12.32;;;;;;;9.77;81.42;94950.84;5054746;28;20589;-73
2023/05/04 00:36:33;;;;;;;13.98;11.90;;;;;;;9.85;81.51;94963.25;5046734;28;20043;-73
2023/05/04 00:38:58;;;;;;;13.70;11.48;;;;;;;9.84;80.96;94959.00;5058500;28;20426;-73
2023/05/04 00:41:24;;;;;;;16.55;12.13;;;;;;;9.83;81.19;94960.78;5075189;28;20024;-73
2023/05/04 00:43:49;;;;;;;18.52;14.50;;;;;;;9.67;80.57;94957.72;5054903;28;20510;-73
2023/05/04 00:46:14;;;;;;;15.38;12.95;;;;;;;9.61;81.01;94978.91;5054947;28;20533;-73
2023/05/04 00:48:40;;;;;;;19.67;14.18;;;;;;;9.40;81.53;94971.00;5055140;28;20067;-73
2023/05/04 00:51:06;;;;;;;18.63;14.43;;;;;;;9.28;82.18;94977.94;5054051;28;20040;-73
2023/05/04 00:53:32;;;;;;;18.58;14.88;;;;;;;9.32;82.93;94968.16;5051045;28;20040;-73
2023/05/04 00:55:58;;;;;;;18.08;14.07;;;;;;;9.40;82.53;94964.06;5054778;28;20028;-73
2023/05/04 00:58:23;;;;;;;16.13;13.75;;;;;;;9.55;81.79;94971.59;5054639;28;20501;-73
2023/05/04 01:00:49;;;;;;;18.77;14.48;;;;;;;9.57;82.24;94972.31;5054600;28;20016;-73
2023/05/04 01:03:14;;;;;;;18.73;14.95;;;;;;;9.56;83.31;94976.69;5054715;28;20067;-73
2023/05/04 01:05:44;;;;;;;18.23;15.10;;;;;;;9.60;82.79;94956.53;5071070;28;20036;-73
2023/05/04 01:08:13;;;;;;;15.00;13.40;;;;;;;9.70;82.13;94967.03;5054355;28;20497;-73
2023/05/04 01:10:41;;;;;;;16.50;13.98;;;;;;;9.68;82.10;94968.91;5070573;28;20031;-73
2023/05/04 01:13:08;;;;;;;16.55;13.93;;;;;;;9.69;82.00;94963.59;5092023;28;20583;-73
2023/05/04 01:15:34;;;;;;;16.80;14.05;;;;;;;9.76;81.38;94958.78;5057625;28;20024;-73
2023/05/04 01:18:00;;;;;;;16.38;14.30;;;;;;;9.78;81.65;94959.47;5074738;28;20039;-73
2023/05/04 01:20:25;;;;;;;18.90;14.52;;;;;;;9.90;78.91;94955.94;5060051;28;20032;-73
2023/05/04 01:22:51;;;;;;;18.75;14.00;;;;;;;9.82;78.99;94958.28;5054678;28;20040;-73
2023/05/04 01:25:17;;;;;;;15.57;13.30;;;;;;;9.78;78.81;94964.69;5055339;28;20526;-73
2023/05/04 01:27:51;;;;;;;17.88;14.32;;;;;;;9.80;79.27;94947.19;5054250;28;20033;-73
2023/05/04 01:30:31;;;;;;;22.98;13.98;;;;;;;9.84;78.84;94944.25;5037554;28;20043;-73
2023/05/04 01:32:59;;;;;;;16.52;12.90;;;;;;;9.78;78.61;94938.72;5040681;28;20039;-73
2023/05/04 01:35:25;;;;;;;19.08;12.90;;;;;;;9.56;78.66;94930.00;5040885;28;20036;-73
2023/05/04 01:37:51;;;;;;;16.63;13.90;;;;;;;9.74;79.61;94932.13;5074499;28;20464;-73
2023/05/04 01:40:16;;;;;;;18.38;14.13;;;;;;;9.70;80.03;94926.34;5056470;28;20083;-73
2023/05/04 01:42:41;;;;;;;17.90;13.68;;;;;;;9.77;79.84;94934.47;5054450;28;20036;-73
2023/05/04 01:45:08;;;;;;;16.63;13.27;;;;;;;9.68;80.51;94923.03;5071894;28;20017;-73
2023/05/04 01:47:33;;;;;;;16.73;12.45;;;;;;;9.65;79.59;94944.03;5071960;28;20037;-73
2023/05/04 01:49:59;;;;;;;14.00;11.52;;;;;;;9.57;78.80;94936.00;5054161;28;20056;-73
2023/05/04 01:52:24;;;;;;;15.00;10.95;;;;;;;9.53;76.98;94929.44;5052861;28;20521;-73
2023/05/04 01:54:50;;;;;;;12.48;9.80;;;;;;;9.57;77.57;94925.63;5085577;28;20020;-74
2023/05/04 01:57:15;;;;;;;12.95;9.93;;;;;;;9.45;77.38;94940.38;5056906;28;20035;-73
2023/05/04 01:59:41;;;;;;;15.75;10.65;;;;;;;9.52;78.38;94938.13;5073028;28;20486;-73
2023/05/04 02:02:08;;;;;;;13.70;10.85;;;;;;;9.47;80.04;94940.25;5042298;28;20040;-75
2023/05/04 02:04:33;;;;;;;12.48;9.73;;;;;;;9.51;79.78;94933.91;5068413;28;20117;-74
2023/05/04 02:06:59;;;;;;;12.98;10.02;;;;;;;9.49;80.22;94938.38;5070095;28;20415;-74
2023/05/04 02:09:25;;;;;;;13.07;9.60;;;;;;;9.38;81.23;94934.00;5053176;28;20025;-74
2023/05/04 02:11:50;;;;;;;13.90;10.80;;;;;;;9.43;81.57;94938.84;5043727;28;20041;-74
2023/05/04 02:14:16;;;;;;;12.20;10.70;;;;;;;9.32;80.76;94930.09;5069865;28;20453;-74
2023/05/04 02:16:41;;;;;;;14.25;10.50;;;;;;;9.12;79.10;94946.34;5057162;28;20040;-74
2023/05/04 02:19:06;;;;;;;11.45;9.77;;;;;;;9.10;78.52;94937.84;5053815;28;20039;-74
2023/05/04 02:21:32;;;;;;;16.55;10.23;;;;;;;9.27;78.52;94950.34;5052488;28;20040;-74
2023/05/04 02:23:58;;;;;;;11.15;8.70;;;;;;;9.05;78.61;94948.53;5069331;28;20036;-74
2023/05/04 02:26:23;;;;;;;12.40;9.30;;;;;;;9.21;78.59;94950.00;5049903;28;20521;-74
2023/05/04 02:28:49;;;;;;;12.43;8.75;;;;;;;9.26;78.40;94953.09;5033416;28;20166;-74
2023/05/04 02:31:14;;;;;;;10.10;8.27;;;;;;;9.13;78.39;94958.34;5033164;28;20383;-74
2023/05/04 02:33:40;;;;;;;11.38;8.45;;;;;;;9.00;78.20;94937.72;5033162;28;20041;-74
2023/05/04 02:36:06;;;;;;;10.85;7.97;;;;;;;9.25;77.94;94954.00;5067601;28;20032;-74
2023/05/04 02:38:31;;;;;;;11.93;7.65;;;;;;;9.18;77.42;94936.31;5052252;28;20032;-74
2023/05/04 02:40:57;;;;;;;9.57;7.43;;;;;;;9.35;79.69;94954.97;5037926;28;20024;-74
2023/05/04 02:43:23;;;;;;;9.70;6.75;;;;;;;9.24;77.32;94936.81;5070936;28;20048;-74
2023/05/04 02:45:48;;;;;;;10.18;6.20;;;;;;;9.18;78.47;94953.66;5064627;28;20025;-74
2023/05/04 02:48:13;;;;;;;9.50;6.25;;;;;;;9.18;77.93;94940.69;5050900;28;20139;-74
2023/05/04 02:50:39;;;;;;;8.40;7.07;;;;;;;9.10;79.83;94943.84;5049729;28;20039;-74
2023/05/04 02:53:04;;;;;;;7.13;5.78;;;;;;;9.14;77.74;94950.47;5033128;28;20043;-74
2023/05/04 02:55:30;;;;;;;9.35;5.60;;;;;;;8.88;79.13;94948.97;5032716;28;20033;-74
2023/05/04 02:57:55;;;;;;;10.75;6.05;;;;;;;8.92;80.24;94955.59;5049932;28;20037;-74
2023/05/04 03:00:21;;;;;;;8.07;6.45;;;;;;;8.69;79.44;94944.31;5050078;28;20486;-74
2023/05/04 03:02:46;;;;;;;7.20;5.80;;;;;;;8.58;80.23;94952.03;5031371;28;20049;-74
2023/05/04 03:05:12;;;;;;;9.88;6.60;;;;;;;8.69;81.32;94954.69;5030552;28;20032;-74
2023/05/04 03:07:37;;;;;;;6.70;5.25;;;;;;;8.72;78.85;94964.84;5031097;28;20080;-74
2023/05/04 03:10:03;;;;;;;6.93;5.30;;;;;;;8.69;80.55;94954.69;5029492;28;20037;-74
2023/05/04 03:12:29;;;;;;;7.82;5.72;;;;;;;8.74;81.13;94960.34;5033758;28;20126;-74
2023/05/04 03:14:54;;;;;;;8.93;6.07;;;;;;;8.80;81.95;94966.84;5030652;28;20033;-74
2023/05/04 03:17:20;;;;;;;8.55;6.78;;;;;;;8.72;82.16;94970.03;5012967;28;20439;-74
2023/05/04 03:19:46;;;;;;;9.65;6.97;;;;;;;8.73;81.90;94953.53;5042317;28;20033;-75
2023/05/04 03:22:11;;;;;;;9.63;6.72;;;;;;;8.79;81.73;94966.03;5045471;28;20026;-74
2023/05/04 03:24:37;;;;;;;10.85;6.85;;;;;;;8.61;82.81;94965.63;5013028;28;20026;-74
2023/05/04 03:27:02;;;;;;;8.57;6.63;;;;;;;8.67;83.39;94957.41;5012933;28;20029;-74
2023/05/04 03:29:28;;;;;;;7.18;6.30;;;;;;;8.72;82.54;94959.66;5012903;28;20487;-75
2023/05/04 03:31:53;;;;;;;5.60;4.97;;;;;;;8.92;80.68;94963.38;5023958;28;20475;-74
2023/05/04 03:34:20;;;;;;;6.78;4.82;;;;;;;8.74;78.86;94952.59;5017897;28;20033;-74
2023/05/04 03:36:47;;;;;;;6.38;4.75;;;;;;;8.88;78.78;94959.34;5052888;28;20454;-74
2023/05/04 03:39:13;;;;;;;6.03;4.78;;;;;;;8.99;78.20;94971.50;5053294;28;20025;-74
2023/05/04 03:41:38;;;;;;;5.35;4.28;;;;;;;8.95;78.61;94976.91;5052856;28;20029;-74
2023/05/04 03:44:04;;;;;;;5.50;4.07;;;;;;;9.02;79.20;94974.69;5034061;28;20526;-75
2023/05/04 03:46:29;;;;;;;6.18;4.15;;;;;;;9.02;78.95;94966.91;5044238;28;20483;-74
2023/05/04 03:48:56;;;;;;;7.70;5.85;;;;;;;9.17;79.53;94983.13;5053360;28;20025;-74
2023/05/04 03:51:21;;;;;;;6.55;5.30;;;;;;;9.31;79.63;94984.69;5052799;28;20112;-74
2023/05/04 03:53:46;;;;;;;8.20;4.88;;;;;;;9.18;80.62;94988.16;5052775;28;20040;-75
2023/05/04 03:56:12;;;;;;;6.20;5.03;;;;;;;9.39;80.28;94990.94;5031680;28;20033;-74
2023/05/04 03:58:37;;;;;;;7.03;6.32;;;;;;;9.28;79.43;94949.44;5032804;28;20056;-75
2023/05/04 04:01:03;;;;;;;11.38;9.05;;;;;;;9.49;79.62;94992.81;5033848;28;20507;-75
2023/05/04 04:03:29;;;;;;;13.70;9.20;;;;;;;9.68;78.49;94992.25;5058159;28;20405;-75
2023/05/04 04:05:55;;;;;;;13.85;10.25;;;;;;;9.51;78.72;94986.56;5091590;28;20036;-75
2023/05/04 04:08:20;;;;;;;11.15;8.80;;;;;;;9.60;78.48;95000.63;5075861;28;20028;-75
2023/05/04 04:10:46;;;;;;;11.63;9.20;;;;;;;9.49;78.90;95003.19;5075766;28;20031;-75
2023/05/04 04:13:11;;;;;;;14.40;11.32;;;;;;;9.50;79.11;95004.84;5073166;28;20029;-75
2023/05/04 04:15:37;;;;;;;11.20;10.00;;;;;;;9.59;78.84;95004.16;5078115;28;20091;-75
2023/05/04 04:18:02;;;;;;;10.30;9.25;;;;;;;9.58;79.02;94998.16;5074803;28;20035;-75
2023/05/04 04:20:27;;;;;;;12.27;9.50;;;;;;;9.50;78.94;94986.69;5074738;28;20394;-75
2023/05/04 04:22:53;;;;;;;10.35;8.60;;;;;;;9.57;79.49;95009.44;5075427;28;20032;-75
2023/05/04 04:25:18;;;;;;;12.10;8.85;;;;;;;9.46;80.00;94999.06;5075524;28;20032;-75
2023/05/04 04:27:44;;;;;;;8.32;6.72;;;;;;;9.54;79.88;95004.50;5093731;28;20032;-75
2023/05/04 04:30:11;;;;;;;4.43;3.92;;;;;;;9.51;78.52;95009.09;5093341;28;20028;-75
2023/05/04 04:32:36;;;;;;;4.75;3.58;;;;;;;9.51;78.25;95016.88;5093345;28;20058;-75
2023/05/04 04:35:02;;;;;;;3.80;3.00;;;;;;;9.60;77.74;95008.41;5058635;28;20032;-75
2023/05/04 04:37:28;;;;;;;3.58;2.70;;;;;;;9.63;76.58;95010.75;5057468;28;20024;-75
2023/05/04 04:39:53;;;;;;;3.58;2.85;;;;;;;9.56;77.32;95013.00;5084456;28;20031;-75
2023/05/04 04:42:19;;;;;;;3.80;3.00;;;;;;;9.39;77.76;95013.44;5081567;28;20097;-75
2023/05/04 04:44:44;;;;;;;4.00;3.05;;;;;;;9.35;77.73;95012.00;5049241;28;20039;-75
2023/05/04 04:47:10;;;;;;;3.88;3.40;;;;;;;9.45;77.19;95014.75;5082718;28;20028;-75
2023/05/04 04:49:36;;;;;;;4.38;3.40;;;;;;;9.40;77.30;94992.56;5078297;28;20563;-75
2023/05/04 04:52:02;;;;;;;4.43;3.10;;;;;;;9.50;77.20;95007.44;5080541;28;20036;-75
2023/05/04 04:54:28;;;;;;;4.78;3.47;;;;;;;9.57;77.30;95003.44;5064290;28;20032;-75
2023/05/04 04:56:53;;;;;;;7.40;3.47;;;;;;;9.62;77.62;95014.31;5089413;28;20036;-75
2023/05/04 04:59:19;;;;;;;6.13;3.78;;;;;;;9.56;78.34;95017.38;5085191;28;20060;-75
2023/05/04 05:01:45;;;;;;;5.25;4.03;;;;;;;9.53;78.24;95020.19;5089393;28;20399;-75
2023/05/04 05:04:10;;;;;;;7.03;4.13;;;;;;;9.22;77.73;95024.22;5074090;28;20059;-75
2023/05/04 05:06:35;;;;;;;6.05;3.88;;;;;;;9.28;76.76;95024.63;5068613;28;20047;-75
2023/05/04 05:09:01;;;;;;;5.45;3.78;;;;;;;9.15;77.90;95029.03;5040353;28;20031;-75
2023/05/04 05:11:27;;;;;;;8.95;4.45;;;;;;;9.08;78.79;95018.31;5041657;28;20035;-75
2023/05/04 05:13:52;;;;;;;6.05;4.07;;;;;;;8.90;80.08;95020.47;5039402;28;20048;-73
2023/05/04 05:16:17;;;;;;;5.57;3.80;;;;;;;8.95;80.20;95018.38;5064972;28;20032;-73
2023/05/04 05:18:43;;;;;;;7.88;5.15;;;;;;;9.09;81.11;95019.13;5071417;28;20046;-75
2023/05/04 05:21:09;;;;;;;8.90;5.90;;;;;;;9.04;82.75;95036.78;5045195;28;20032;-74
2023/05/04 05:23:35;;;;;;;9.82;6.88;;;;;;;8.79;84.39;95023.03;5073229;28;20030;-74
2023/05/04 05:26:00;;;;;;;13.00;7.50;;;;;;;8.76;84.49;95007.69;5063580;28;20024;-75
2023/05/04 05:28:26;;;;;;;10.95;7.88;;;;;;;8.88;85.18;95044.84;5068339;28;20051;-75
2023/05/04 05:30:51;;;;;;;11.32;7.25;;;;;;;8.85;85.39;95032.09;5086718;28;20086;-75
2023/05/04 05:33:17;;;;;;;6.97;4.97;;;;;;;8.97;84.18;95036.41;5059556;28;20032;-75
2023/05/04 05:35:43;;;;;;;9.93;5.10;;;;;;;8.82;83.53;95042.69;5038682;28;20024;-75
2023/05/04 05:38:08;;;;;;;8.70;5.50;;;;;;;8.95;84.07;95048.66;5038582;28;20462;-75
2023/05/04 05:40:35;;;;;;;7.65;4.78;;;;;;;8.93;82.57;95046.16;5052188;28;20021;-75
2023/05/04 05:43:01;;;;;;;6.70;5.25;;;;;;;8.88;83.40;95043.06;5080999;28;20024;-75
2023/05/04 05:45:27;;;;;;;7.75;5.25;;;;;;;8.82;83.66;95053.88;5052708;28;20024;-75
2023/05/04 05:47:52;;;;;;;7.75;5.10;;;;;;;8.86;82.26;95032.00;5055368;28;20401;-75
2023/05/04 05:50:18;;;;;;;10.60;5.03;;;;;;;9.03;81.51;95043.75;5057271;28;20043;-75
2023/05/04 05:52:44;;;;;;;7.03;4.47;;;;;;;9.02;81.59;95051.59;5070481;28;20029;-75
2023/05/04 05:55:10;;;;;;;7.72;4.82;;;;;;;8.91;83.06;95040.28;5072427;28;20494;-75
2023/05/04 05:57:35;;;;;;;8.60;4.90;;;;;;;8.94;83.58;95057.34;5070300;28;20024;-75
2023/05/04 06:00:01;;;;;;;9.15;5.63;;;;;;;9.01;83.52;95052.56;5072250;28;20028;-75
2023/05/04 06:02:26;;;;;;;8.60;5.95;;;;;;;9.11;83.76;95056.09;5073525;28;20035;-75
2023/05/04 06:04:52;;;;;;;8.70;5.65;;;;;;;9.14;82.39;95053.31;5073711;28;20028;-75
2023/05/04 06:07:18;;;;;;;6.82;5.18;;;;;;;9.01;81.74;95044.78;5091879;28;20039;-75
2023/05/04 06:09:44;;;;;;;6.40;4.63;;;;;;;9.11;81.29;95058.69;5057190;28;20107;-75
2023/05/04 06:12:12;;;;;;;7.57;4.68;;;;;;;9.20;81.62;95055.47;5040468;28;20088;-74
2023/05/04 06:14:40;;;;;;;7.85;4.50;;;;;;;9.31;80.45;95055.50;5073940;28;20077;-75
2023/05/04 06:17:06;;;;;;;6.93;4.63;;;;;;;9.32;81.06;95054.53;5073380;28;20074;-75
2023/05/04 06:19:38;;;;;;;7.25;4.90;;;;;;;9.30;80.77;95056.41;5073493;28;20028;-75
2023/05/04 06:22:04;;;;;;;6.45;4.60;;;;;;;9.41;80.12;95050.44;5057009;28;20028;-75
2023/05/04 06:24:30;;;;;;;7.18;4.47;;;;;;;9.24;80.56;95053.47;5040188;28;20157;-75
2023/05/04 06:26:56;;;;;;;7.10;4.53;;;;;;;9.17;79.24;95022.00;5056861;28;20118;-75
2023/05/04 06:29:22;;;;;;;5.90;4.30;;;;;;;9.45;79.04;95053.66;5056906;28;20028;-75
2023/05/04 06:31:47;;;;;;;5.60;4.22;;;;;;;9.29;78.06;95044.41;5039894;28;20028;-75
2023/05/04 06:34:15;;;;;;;5.82;4.03;;;;;;;9.38;78.60;95035.09;5073437;28;20028;-75
2023/05/04 06:36:41;;;;;;;6.15;4.38;;;;;;;9.36;78.73;95052.53;5056453;28;20039;-75
2023/05/04 06:39:06;;;;;;;7.00;4.57;;;;;;;9.16;79.81;95038.47;5073153;28;20422;-75
2023/05/04 06:41:32;;;;;;;6.43;4.50;;;;;;;9.27;78.67;95055.81;5073002;28;20089;-75
2023/05/04 06:43:58;;;;;;;5.25;4.20;;;;;;;9.07;79.31;95036.56;5039767;28;20023;-75
2023/05/04 06:46:24;;;;;;;5.72;4.70;;;;;;;9.16;80.54;95054.00;5073196;28;20490;-75
2023/05/04 06:48:49;;;;;;;8.32;5.00;;;;;;;9.31;79.01;95055.50;5056363;28;20082;-74
2023/05/04 06:51:15;;;;;;;6.93;4.85;;;;;;;9.35;79.68;95061.28;5056118;28;20040;-75
2023/05/04 06:53:41;;;;;;;6.38;4.68;;;;;;;9.44;78.32;95067.53;5073055;28;20024;-75
2023/05/04 06:56:07;;;;;;;5.65;4.57;;;;;;;9.39;78.59;95066.13;5056308;28;20040;-75
2023/05/04 06:58:32;;;;;;;6.95;5.40;;;;;;;9.51;78.65;95066.97;5090913;28;20099;-74
2023/05/04 07:00:58;;;;;;;6.72;5.38;;;;;;;9.61;78.17;95067.94;5072706;28;20028;-74
2023/05/04 07:03:23;;;;;;;6.00;4.57;;;;;;;9.37;77.24;95065.41;5056155;28;20457;-74
2023/05/04 07:05:49;;;;;;;7.57;5.13;;;;;;;9.45;78.07;95059.66;5090890;28;20024;-74
2023/05/04 07:08:16;;;;;;;6.97;5.03;;;;;;;9.32;76.71;95031.22;5060638;28;20092;-74
2023/05/04 07:10:41;;;;;;;6.57;5.30;;;;;;;9.58;77.18;95067.34;5060506;28;20106;-74
2023/05/04 07:13:07;;;;;;;6.68;4.75;;;;;;;9.73;77.05;95067.97;5060651;28;20044;-74
2023/05/04 07:15:33;;;;;;;6.13;4.75;;;;;;;9.76;76.82;95058.19;5076906;28;20028;-74
2023/05/04 07:17:58;;;;;;;6.88;4.93;;;;;;;9.84;76.74;95061.00;5043968;28;20036;-75
2023/05/04 07:20:24;;;;;;;5.55;4.45;;;;;;;9.73;76.35;95053.22;5060131;28;20024;-75
2023/05/04 07:22:55;;;;;;;6.30;5.03;;;;;;;9.74;77.13;95060.06;5077008;28;20043;-74
2023/05/04 07:25:21;;;;;;;6.87;5.20;;;;;;;9.62;77.67;95068.78;5060928;28;20098;-75
2023/05/04 07:27:47;;;;;;;6.47;4.65;;;;;;;9.53;76.38;95074.66;5060217;28;20040;-74
2023/05/04 07:30:13;;;;;;;6.28;4.70;;;;;;;9.50;77.10;95080.03;5094699;28;20020;-74
2023/05/04 07:32:38;;;;;;;6.63;4.65;;;;;;;9.46;77.80;95079.44;5059862;28;20036;-74
2023/05/04 07:35:04;;;;;;;6.93;5.65;;;;;;;9.34;79.10;95070.00;5094479;28;20032;-75
2023/05/04 07:37:30;;;;;;;6.95;5.93;;;;;;;9.34;78.41;95073.41;5076600;28;20036;-74
2023/05/04 07:39:55;;;;;;;7.95;6.03;;;;;;;9.40;79.49;95080.72;5059869;28;20039;-75
2023/05/04 07:42:22;;;;;;;6.88;4.80;;;;;;;9.35;78.68;95074.22;5076422;28;20036;-74
2023/05/04 07:44:47;;;;;;;8.05;6.47;;;;;;;9.32;79.39;95072.69;5094618;28;20027;-75
2023/05/04 07:47:13;;;;;;;7.40;5.90;;;;;;;9.35;80.16;95074.22;5076355;28;20028;-74
2023/05/04 07:49:38;;;;;;;9.23;5.93;;;;;;;9.52;78.72;95071.22;5094381;28;20020;-74
2023/05/04 07:52:04;;;;;;;7.72;5.97;;;;;;;9.76;78.16;95080.69;5094495;28;20340;-74
2023/05/04 07:54:30;;;;;;;9.35;7.60;;;;;;;9.90;79.19;95077.88;5076137;28;20498;-75
2023/05/04 07:56:55;;;;;;;7.82;6.15;;;;;;;10.04;78.50;95080.25;5076010;28;20047;-74
2023/05/04 07:59:21;;;;;;;6.60;5.32;;;;;;;9.93;77.00;95071.66;5076018;28;20032;-74
2023/05/04 08:01:46;;;;;;;6.55;4.82;;;;;;;10.00;75.88;95086.63;5059313;28;20048;-75
2023/05/04 08:04:12;;;;;;;7.32;5.03;;;;;;;9.98;76.43;95082.50;5042852;28;20079;-75
2023/05/04 08:06:38;;;;;;;6.18;5.05;;;;;;;10.10;76.21;95094.53;5075950;28;20489;-74
2023/05/04 08:09:05;;;;;;;6.68;4.82;;;;;;;9.90;76.73;95084.84;5076059;28;20035;-75
2023/05/04 08:11:33;;;;;;;5.55;4.20;;;;;;;9.89;75.51;95098.75;5075692;28;20078;-75
2023/05/04 08:13:58;;;;;;;5.85;4.68;;;;;;;9.62;75.82;95084.34;5059969;28;20016;-74
2023/05/04 08:16:24;;;;;;;5.80;4.70;;;;;;;9.69;76.60;95101.06;5059028;28;20036;-75
2023/05/04 08:18:50;;;;;;;5.70;4.28;;;;;;;9.80;76.77;95088.13;5058300;28;20023;-74
2023/05/04 08:21:15;;;;;;;6.35;4.93;;;;;;;10.07;76.19;95095.59;5093699;28;20032;-74
2023/05/04 08:23:41;;;;;;;5.25;4.70;;;;;;;10.19;75.68;95087.81;5075696;28;20035;-75
2023/05/04 08:26:06;;;;;;;6.88;5.13;;;;;;;10.17;75.20;95095.72;5093694;28;20206;-75
2023/05/04 08:28:34;;;;;;;8.55;5.82;;;;;;;10.31;74.73;95097.28;5058843;28;20028;-74
2023/05/04 08:30:59;;;;;;;8.05;5.22;;;;;;;10.16;74.48;95081.06;5058975;28;20028;-74
2023/05/04 08:33:25;;;;;;;7.10;5.00;;;;;;;10.35;73.63;95098.69;5058949;28;20382;-74
2023/05/04 08:35:50;;;;;;;6.35;4.88;;;;;;;10.36;73.23;95086.53;5041924;28;20036;-74
2023/05/04 08:38:16;;;;;;;6.15;5.10;;;;;;;10.47;73.52;95070.94;5093374;28;20024;-74
2023/05/04 08:40:44;;;;;;;8.27;6.32;;;;;;;10.77;73.75;95085.06;5075265;28;20039;-74
2023/05/04 08:43:10;;;;;;;6.95;5.57;;;;;;;10.96;73.40;95080.06;5059418;28;20036;-74
2023/05/04 08:45:38;;;;;;;7.65;6.00;;;;;;;10.92;73.28;95076.03;5058560;28;20039;-74
2023/05/04 08:48:05;;;;;;;9.50;6.70;;;;;;;10.95;73.53;95081.84;5093190;28;20044;-74
2023/05/04 08:50:32;;;;;;;6.70;5.30;;;;;;;10.96;72.08;95080.88;5041827;28;20024;-74
2023/05/04 08:52:59;;;;;;;9.05;5.72;;;;;;;11.06;71.74;95083.59;5075333;28;20040;-74
2023/05/04 08:55:25;;;;;;;8.73;6.97;;;;;;;11.16;71.40;95079.28;5058338;28;20055;-74
2023/05/04 08:57:50;;;;;;;7.78;5.75;;;;;;;11.23;70.67;95068.38;5058552;28;20478;-74
2023/05/04 09:00:16;;;;;;;8.13;6.65;;;;;;;11.36;70.34;95087.22;5041545;28;20509;-74
2023/05/04 09:02:42;;;;;;;6.72;4.95;;;;;;;11.04;70.10;95080.28;5041405;28;20051;-74
2023/05/04 09:05:08;;;;;;;7.13;6.10;;;;;;;10.95;72.38;95073.22;5058121;28;20546;-75
2023/05/04 09:07:34;;;;;;;9.18;6.93;;;;;;;10.82;73.29;95082.94;5041368;28;20101;-74
2023/05/04 09:09:59;;;;;;;7.65;5.85;;;;;;;10.68;73.15;95074.47;5058113;28;20494;-74
2023/05/04 09:12:25;;;;;;;7.05;6.13;;;;;;;10.90;71.86;95089.19;5041412;28;20400;-74
2023/05/04 09:14:51;;;;;;;10.63;7.05;;;;;;;10.81;73.65;95074.31;5074702;28;20028;-74
2023/05/04 09:17:26;;;;;;;9.07;7.05;;;;;;;10.95;73.50;95096.63;5057971;28;20073;-74
2023/05/04 09:19:59;;;;;;;9.02;7.65;;;;;;;10.79;73.60;95080.59;5075672;28;20414;-75
2023/05/04 09:22:24;;;;;;;8.90;7.03;;;;;;;10.88;72.68;95085.88;5074543;28;20032;-74
2023/05/04 09:24:50;;;;;;;9.35;7.70;;;;;;;10.84;73.35;95083.66;5092479;28;20050;-74
2023/05/04 09:27:16;;;;;;;10.55;8.15;;;;;;;10.93;73.28;95093.31;5074434;28;20051;-74
2023/05/04 09:29:42;;;;;;;11.93;8.48;;;;;;;10.96;73.08;95078.28;5057755;28;20028;-74
2023/05/04 09:32:11;;;;;;;11.80;8.30;;;;;;;11.27;72.60;95088.00;5041154;28;20036;-74
2023/05/04 09:34:45;;;;;;;11.60;7.60;;;;;;;10.66;73.64;95054.75;5074391;28;20070;-74
2023/05/04 09:37:10;;;;;;;10.88;7.90;;;;;;;11.11;72.68;95078.00;5058652;28;20036;-74
2023/05/04 09:39:36;;;;;;;11.60;8.93;;;;;;;11.18;72.13;95082.59;5074197;28;20028;-74
2023/05/04 09:42:01;;;;;;;10.52;7.55;;;;;;;11.21;71.35;95067.69;5057651;28;20321;-74
2023/05/04 09:44:27;;;;;;;12.32;8.73;;;;;;;11.29;71.40;95070.50;5040983;28;20043;-75
2023/05/04 09:46:57;;;;;;;11.10;8.10;;;;;;;11.45;70.48;95083.06;5092667;28;20035;-74
2023/05/04 09:49:35;;;;;;;10.93;8.90;;;;;;;11.52;71.16;95077.22;5073978;28;20020;-74
2023/05/04 09:52:02;;;;;;;12.65;9.23;;;;;;;11.56;70.91;95076.03;5058384;28;20032;-74
2023/05/04 09:54:30;;;;;;;12.05;8.77;;;;;;;11.75;70.45;95071.88;5073893;28;20027;-74
2023/05/04 09:56:58;;;;;;;11.07;8.13;;;;;;;11.84;68.42;95073.75;5057967;28;20039;-75
2023/05/04 09:59:26;;;;;;;11.85;8.70;;;;;;;11.90;69.01;95075.84;5057509;28;20028;-74
2023/05/04 10:01:51;;;;;;;12.30;9.88;;;;;;;11.93;68.54;95065.19;5040775;28;20115;-74
2023/05/04 10:04:17;;;;;;;11.07;8.18;;;;;;;12.03;68.39;95060.84;5073610;28;20105;-74
2023/05/04 10:06:43;;;;;;;10.75;7.40;;;;;;;12.11;67.40;95059.38;5040330;28;20051;-74
2023/05/04 10:09:08;;;;;;;10.70;8.55;;;;;;;12.19;67.02;95047.34;5040476;28;20028;-75
2023/05/04 10:11:34;;;;;;;11.25;8.80;;;;;;;12.31;66.94;95050.66;5040167;28;20098;-74
2023/05/04 10:13:59;;;;;;;11.38;7.97;;;;;;;12.33;66.66;95042.75;5073560;28;20036;-74
2023/05/04 10:16:59;;;;;;;9.63;7.82;;;;;;;12.20;66.92;95050.75;5073332;28;20032;-75
2023/05/04 10:19:30;;;;;;;11.05;8.70;;;;;;;12.33;67.38;95042.75;5056792;28;20032;-74
2023/05/04 10:21:58;;;;;;;11.57;8.57;;;;;;;12.34;68.24;95047.81;5091700;28;20394;-74
2023/05/04 10:24:44;;;;;;;11.57;8.80;;;;;;;12.49;67.02;95043.88;5091455;28;20032;-74
2023/05/04 10:27:32;;;;;;;11.93;8.70;;;;;;;12.57;66.84;95045.00;5073194;28;20039;-74
2023/05/04 10:29:57;;;;;;;12.57;8.40;;;;;;;12.67;65.84;95043.22;5091416;28;20105;-74
2023/05/04 10:32:23;;;;;;;13.90;9.27;;;;;;;12.75;66.30;95048.59;5056708;28;20033;-75
2023/05/04 10:34:48;;;;;;;11.45;8.18;;;;;;;12.72;65.65;95034.03;5091309;28;20031;-75
2023/05/04 10:37:18;;;;;;;11.10;8.43;;;;;;;12.60;65.47;95003.88;5056464;28;20036;-74
2023/05/04 10:39:53;;;;;;;11.10;8.18;;;;;;;12.78;66.36;95043.13;5073314;28;20055;-74
2023/05/04 10:42:19;;;;;;;11.57;8.52;;;;;;;12.53;67.00;95029.63;5072739;28;20036;-74
2023/05/04 10:44:55;;;;;;;12.43;9.25;;;;;;;12.30;67.90;95028.19;5056343;28;20418;-74
2023/05/04 10:47:28;;;;;;;12.93;8.88;;;;;;;12.28;67.91;95041.34;5073159;28;20032;-75
2023/05/04 10:50:04;;;;;;;11.65;8.95;;;;;;;12.44;67.13;95046.06;5056686;28;20024;-75
2023/05/04 10:52:50;;;;;;;12.80;9.13;;;;;;;12.44;66.56;95046.06;5072947;28;20504;-75
2023/05/04 10:55:17;;;;;;;14.50;9.55;;;;;;;12.45;67.18;95049.47;5072770;28;20050;-75
2023/05/04 10:57:53;;;;;;;11.38;8.20;;;;;;;12.33;67.87;95035.75;5039698;28;20047;-74
2023/05/04 11:00:18;;;;;;;11.63;9.13;;;;;;;12.31;66.74;95040.25;5072893;28;20024;-74
2023/05/04 11:02:46;;;;;;;16.77;9.25;;;;;;;11.85;67.73;95038.94;5055778;28;20047;-74
2023/05/04 11:05:16;;;;;;;12.85;9.77;;;;;;;12.06;68.07;95046.72;5056766;28;20076;-74
2023/05/04 11:07:42;;;;;;;17.02;10.32;;;;;;;11.79;69.57;95024.66;5073651;28;20024;-74
2023/05/04 11:10:19;;;;;;;13.93;10.05;;;;;;;11.99;69.99;95056.84;5039664;28;20036;-74
2023/05/04 11:12:44;;;;;;;16.52;10.77;;;;;;;12.05;70.60;95053.72;5072893;28;20025;-75
2023/05/04 11:15:10;;;;;;;14.68;10.73;;;;;;;12.24;68.26;95045.16;5039705;28;20112;-74
2023/05/04 11:17:48;;;;;;;13.98;10.10;;;;;;;12.07;69.34;95054.44;5072514;28;20044;-75
2023/05/04 11:20:24;;;;;;;13.88;9.82;;;;;;;11.99;68.47;95056.84;5072665;28;20402;-74
2023/05/04 11:22:50;;;;;;;15.32;10.77;;;;;;;12.11;68.41;95051.56;5073002;28;20545;-74
2023/05/04 11:25:16;;;;;;;14.00;10.00;;;;;;;12.28;66.47;95040.50;5072974;28;20059;-74
2023/05/04 11:27:42;;;;;;;14.65;9.98;;;;;;;12.24;66.15;95050.38;5072755;28;20039;-74
2023/05/04 11:30:08;;;;;;;13.93;9.90;;;;;;;12.34;66.51;95063.47;5056106;28;20031;-74